Time;durP1;ratioP1;P1;durP2;ratioP2;P2;SDS_P1;SDS_P2;PMS_P1;PMS_P2;Temp;Humidity;BMP_temperature;BMP_pressure;BME280_temperature;BME280_humidity;BME280_pressure;Samples;Min_cycle;Max_cycle;Signal;HPM_P1;HPM_P2
2021/08/21 00:00:55;;;;;;;16.30;14.00;;;;;;;19.72;64.76;100071.94;6040716;23;20062;-81
2021/08/21 00:03:22;;;;;;;17.42;12.98;;;;;;;19.71;64.99;100069.41;6039387;23;20028;-81
2021/08/21 00:05:50;;;;;;;17.85;14.52;;;;;;;19.69;65.20;100079.41;6039395;23;20347;-81
2021/08/21 00:08:16;;;;;;;17.90;15.43;;;;;;;19.67;65.17;100083.03;6039910;23;20485;-81
2021/08/21 00:10:50;;;;;;;22.30;16.88;;;;;;;19.64;66.38;100079.81;6040978;23;20403;-81
2021/08/21 00:13:17;;;;;;;22.33;17.13;;;;;;;19.67;65.35;100082.19;6039572;23;20066;-81
2021/08/21 00:16:10;;;;;;;22.63;16.55;;;;;;;19.61;66.79;100078.25;6041037;23;20102;-81
2021/08/21 00:18:36;;;;;;;22.70;16.70;;;;;;;19.64;65.71;100083.31;6039281;23;20102;-81
2021/08/21 00:21:03;;;;;;;23.95;18.35;;;;;;;19.64;66.14;100077.97;6039169;23;20106;-80
2021/08/21 00:23:30;;;;;;;25.52;18.85;;;;;;;19.62;66.40;100085.28;6039577;23;20027;-81
2021/08/21 00:25:58;;;;;;;24.88;18.35;;;;;;;19.62;67.13;100079.94;6039264;23;20098;-81
2021/08/21 00:28:25;;;;;;;26.55;20.30;;;;;;;19.64;67.20;100072.66;6039340;23;20407;-81
2021/08/21 00:30:54;;;;;;;22.42;16.98;;;;;;;19.65;67.60;100073.47;6038913;23;20098;-81
2021/08/21 00:33:21;;;;;;;22.90;17.50;;;;;;;19.67;66.93;100064.34;6040557;23;20038;-81
2021/08/21 00:35:48;;;;;;;20.80;16.25;;;;;;;19.70;66.70;100065.06;6039041;23;20105;-81
2021/08/21 00:38:30;;;;;;;20.80;16.50;;;;;;;19.69;67.63;100063.38;6039369;23;20503;-81
2021/08/21 00:40:56;;;;;;;20.08;16.77;;;;;;;19.75;66.68;100068.13;6038959;23;20065;-81
2021/08/21 00:43:23;;;;;;;19.80;15.20;;;;;;;19.76;66.58;100067.16;6038747;23;20062;-81
2021/08/21 00:46:14;;;;;;;17.75;14.98;;;;;;;19.73;66.77;100070.13;6038099;23;20102;-80
2021/08/21 00:48:41;;;;;;;25.00;18.52;;;;;;;19.77;66.30;100066.16;6038738;23;20101;-81
2021/08/21 00:51:15;;;;;;;22.00;17.33;;;;;;;19.72;66.94;100069.28;6041760;23;20396;-81
2021/08/21 00:53:41;;;;;;;23.55;18.63;;;;;;;19.73;66.20;100060.25;6043702;23;20113;-81
2021/08/21 00:56:08;;;;;;;24.27;17.75;;;;;;;19.71;66.21;100056.91;6043875;23;20023;-81
2021/08/21 00:58:38;;;;;;;23.77;18.38;;;;;;;19.67;66.89;100060.84;6043706;23;20023;-81
2021/08/21 01:01:05;;;;;;;23.73;18.42;;;;;;;19.67;66.29;100060.84;6043672;23;20110;-81
2021/08/21 01:03:32;;;;;;;24.35;18.42;;;;;;;19.65;66.65;100060.97;6043824;23;20030;-81
2021/08/21 01:06:04;;;;;;;17.35;13.77;;;;;;;19.62;66.67;100061.25;6044033;23;20026;-80
2021/08/21 01:08:31;;;;;;;19.42;15.75;;;;;;;19.62;66.10;100058.56;6043790;23;20062;-81
2021/08/21 01:10:58;;;;;;;18.08;14.90;;;;;;;19.61;65.78;100050.69;6044447;23;20026;-81
2021/08/21 01:13:34;;;;;;;20.45;14.50;;;;;;;19.56;66.49;100052.94;6043522;23;20022;-81
2021/08/21 01:16:00;;;;;;;17.13;14.25;;;;;;;19.56;65.60;100050.28;6043750;23;20462;-80
2021/08/21 01:18:44;;;;;;;19.38;14.95;;;;;;;19.49;66.43;100052.66;6043922;23;20031;-81
2021/08/21 01:21:10;;;;;;;18.27;14.45;;;;;;;19.50;65.66;100052.53;6043651;23;20086;-81
2021/08/21 01:23:37;;;;;;;18.38;14.43;;;;;;;19.46;65.47;100047.59;6043494;23;20380;-81
2021/08/21 01:26:09;;;;;;;19.35;14.25;;;;;;;19.39;65.71;100042.81;6043264;23;20089;-81
2021/08/21 01:28:36;;;;;;;18.25;15.07;;;;;;;19.38;65.24;100045.63;6043558;23;20455;-81
2021/08/21 01:31:07;;;;;;;20.05;15.40;;;;;;;19.33;65.90;100043.34;6044654;23;20023;-81
2021/08/21 01:34:02;;;;;;;23.67;18.05;;;;;;;19.26;66.59;100042.22;6043428;23;20106;-81
2021/08/21 01:36:52;;;;;;;19.95;15.23;;;;;;;19.24;66.45;100045.03;6043439;23;20098;-81
2021/08/21 01:39:19;;;;;;;20.27;15.25;;;;;;;19.24;65.78;100044.19;6043716;23;20406;-80
2021/08/21 01:45:13;;;;;;;26.23;19.38;;;;;;;19.18;66.11;100053.59;6068289;23;20034;-81
2021/08/21 01:47:57;;;;;;;25.85;18.90;;;;;;;19.11;67.02;100045.25;6043766;23;20034;-81
2021/08/21 01:50:24;;;;;;;20.73;15.50;;;;;;;19.13;66.42;100042.47;6068436;23;20098;-81
2021/08/21 01:52:51;;;;;;;25.75;18.60;;;;;;;19.11;66.29;100050.59;6038743;23;20514;-80
2021/08/21 01:55:23;;;;;;;28.40;20.70;;;;;;;19.08;67.23;100047.38;6037911;23;20094;-81
2021/08/21 01:57:50;;;;;;;28.30;19.67;;;;;;;19.10;66.92;100048.09;6039723;23;20458;-81
2021/08/21 02:00:32;;;;;;;27.50;20.20;;;;;;;19.03;67.79;100053.09;6041855;23;20027;-81
2021/08/21 02:02:59;;;;;;;27.92;20.20;;;;;;;19.08;67.07;100056.22;6041703;23;20024;-80
2021/08/21 02:05:25;;;;;;;29.90;21.20;;;;;;;19.06;66.92;100050.16;6042843;23;20062;-81
2021/08/21 02:07:55;;;;;;;25.08;19.13;;;;;;;19.04;67.47;100060.13;6041429;23;20098;-81
2021/08/21 02:10:22;;;;;;;33.55;22.05;;;;;;;19.04;67.20;100060.13;6041743;23;20033;-81
2021/08/21 02:12:52;;;;;;;30.20;20.73;;;;;;;19.01;67.46;100060.38;6041563;23;20032;-80
2021/08/21 02:15:19;;;;;;;29.50;21.63;;;;;;;19.02;67.32;100056.72;6041920;23;20027;-79
2021/08/21 02:17:49;;;;;;;32.33;23.95;;;;;;;19.00;67.79;100058.69;6041487;23;20106;-80
2021/08/21 02:20:16;;;;;;;29.30;19.98;;;;;;;19.00;67.64;100061.38;6041602;23;20030;-80
2021/08/21 02:22:46;;;;;;;30.00;21.83;;;;;;;18.98;67.83;100060.63;6041434;23;20110;-80
2021/08/21 02:25:19;;;;;;;30.58;21.85;;;;;;;18.95;68.52;100059.09;6041389;23;20104;-80
2021/08/21 02:27:55;;;;;;;;;;;;;;;18.96;67.92;100054.59;6041941;23;20098;-80
2021/08/21 02:30:28;;;;;;;26.80;19.42;;;;;;;19.01;67.72;100057.72;6040709;23;19924;-80
2021/08/21 02:32:55;;;;;;;27.50;20.27;;;;;;;19.00;67.81;100061.38;6041314;23;20023;-80
2021/08/21 02:35:22;;;;;;;29.25;20.80;;;;;;;19.00;67.94;100066.69;6041592;23;20047;-80
2021/08/21 02:37:59;;;;;;;32.55;21.65;;;;;;;18.96;69.09;100060.81;6043219;23;20045;-80
2021/08/21 02:40:26;;;;;;;30.00;21.77;;;;;;;19.00;68.47;100064.03;6041913;23;20397;-80
2021/08/21 02:43:13;;;;;;;27.35;21.20;;;;;;;18.97;69.34;100064.28;6041481;23;20110;-80
2021/08/21 02:45:40;;;;;;;31.85;22.13;;;;;;;19.01;68.28;100065.72;6041691;23;20419;-79
2021/08/21 02:48:07;;;;;;;30.40;21.50;;;;;;;19.00;68.39;100059.53;6043006;23;20087;-79
2021/08/21 02:50:39;;;;;;;26.33;21.20;;;;;;;18.97;68.88;100061.63;6041391;23;20027;-79
2021/08/21 02:53:15;;;;;;;32.45;21.30;;;;;;;18.95;68.85;100058.25;6041525;23;20126;-80
2021/08/21 02:55:42;;;;;;;25.70;19.70;;;;;;;18.97;68.33;100057.16;6041226;23;20038;-80
2021/08/21 02:58:09;;;;;;;27.40;21.00;;;;;;;18.96;68.32;100058.13;6043195;23;20102;-80
2021/08/21 03:00:36;;;;;;;26.55;20.95;;;;;;;18.96;68.55;100057.28;6041520;23;20343;-80
2021/08/21 03:03:03;;;;;;;26.75;19.95;;;;;;;18.95;68.33;100059.09;6041243;23;20034;-79
2021/08/21 03:05:30;;;;;;;27.70;21.38;;;;;;;18.96;68.43;100060.81;6041195;23;20023;-80
2021/08/21 03:07:56;;;;;;;26.10;19.92;;;;;;;18.97;68.65;100062.47;6041603;23;20045;-80
2021/08/21 03:10:23;;;;;;;30.60;21.05;;;;;;;18.99;68.35;100059.69;6039549;23;20102;-80
2021/08/21 03:13:16;;;;;;;27.75;20.33;;;;;;;18.96;69.38;100062.63;6040148;23;20126;-80
2021/08/21 03:15:43;;;;;;;31.27;21.02;;;;;;;19.01;68.31;100055.91;6039633;23;20027;-80
2021/08/21 03:18:10;;;;;;;29.15;21.27;;;;;;;19.02;68.51;100051.38;6040061;23;20031;-80
2021/08/21 03:20:59;;;;;;;26.90;20.75;;;;;;;18.97;69.32;100050.94;6039631;23;20034;-80
2021/08/21 03:23:26;;;;;;;28.83;20.48;;;;;;;19.00;68.43;100050.69;6039709;23;20106;-80
2021/08/21 03:25:59;;;;;;;25.40;19.50;;;;;;;18.98;69.10;100055.31;6039836;23;20037;-80
2021/08/21 03:28:26;;;;;;;27.65;19.48;;;;;;;19.00;68.54;100058.69;6040117;23;20102;-80
2021/08/21 03:31:01;;;;;;;25.23;18.90;;;;;;;18.98;68.98;100057.97;6039597;23;20027;-80
2021/08/21 03:33:30;;;;;;;27.08;20.10;;;;;;;19.00;68.35;100051.53;6040311;23;20027;-80
2021/08/21 03:36:01;;;;;;;24.10;18.58;;;;;;;18.99;68.95;100060.50;6039360;23;20037;-80
2021/08/21 03:38:27;;;;;;;25.02;19.25;;;;;;;19.02;68.52;100056.72;6039730;23;20023;-80
2021/08/21 03:40:54;;;;;;;27.30;19.45;;;;;;;19.02;68.35;100056.72;6039735;23;20098;-80
2021/08/21 03:43:47;;;;;;;23.23;18.30;;;;;;;18.99;68.87;100057.03;6039571;23;20023;-80
2021/08/21 03:46:13;;;;;;;27.02;18.35;;;;;;;19.05;68.16;100055.59;6039569;23;20034;-80
2021/08/21 03:48:40;;;;;;;26.33;18.95;;;;;;;19.04;67.78;100056.59;6039400;23;20027;-80
2021/08/21 03:51:07;;;;;;;22.35;17.67;;;;;;;19.02;67.97;100054.06;6039844;23;20106;-80
2021/08/21 03:53:33;;;;;;;20.00;16.60;;;;;;;19.01;67.55;100057.72;6039264;23;20110;-80
2021/08/21 03:56:00;;;;;;;21.35;16.30;;;;;;;19.01;67.69;100055.03;6039484;23;20106;-80
2021/08/21 03:58:27;;;;;;;18.77;14.63;;;;;;;18.97;67.78;100043.81;6039718;23;20495;-80
2021/08/21 04:00:58;;;;;;;22.17;17.33;;;;;;;18.95;67.95;100055.59;6041211;23;20401;-79
2021/08/21 04:03:25;;;;;;;24.23;18.27;;;;;;;18.95;67.41;100050.25;6040333;23;20087;-80
2021/08/21 04:05:55;;;;;;;24.58;19.05;;;;;;;18.91;67.64;100054.19;6039161;23;20077;-80
2021/08/21 04:08:22;;;;;;;21.45;16.33;;;;;;;18.90;67.13;100050.66;6039283;23;20110;-80
2021/08/21 04:10:49;;;;;;;19.88;15.88;;;;;;;18.89;67.53;100055.13;6040442;23;20030;-80
2021/08/21 04:13:15;;;;;;;21.60;16.52;;;;;;;18.86;67.16;100059.91;6039451;23;20063;-80
2021/08/21 04:15:42;;;;;;;19.73;15.30;;;;;;;18.85;67.29;100058.22;6039033;23;20042;-81
2021/08/21 04:18:09;;;;;;;22.25;17.17;;;;;;;18.82;67.14;100059.34;6039629;23;20388;-80
2021/08/21 04:20:35;;;;;;;18.85;14.82;;;;;;;18.80;67.05;100055.13;6039150;23;20106;-80
2021/08/21 04:23:02;;;;;;;24.42;16.65;;;;;;;18.78;66.97;100049.91;6039615;23;20090;-80
2021/08/21 04:25:30;;;;;;;20.55;16.50;;;;;;;18.74;66.92;100053.81;6040408;23;20106;-80
2021/08/21 04:27:57;;;;;;;22.05;16.50;;;;;;;18.72;66.96;100059.28;6040419;23;20062;-80
2021/08/21 04:30:23;;;;;;;22.55;17.75;;;;;;;18.69;67.07;100062.22;6039041;23;20030;-80
2021/08/21 04:33:14;;;;;;;22.23;17.70;;;;;;;18.61;67.91;100065.53;6039163;23;20102;-80
2021/08/21 04:35:41;;;;;;;23.25;18.27;;;;;;;18.62;67.49;100061.91;6040431;23;20097;-80
2021/08/21 04:38:08;;;;;;;26.30;19.83;;;;;;;18.59;67.35;100061.31;6039518;23;20508;-80
2021/08/21 04:40:34;;;;;;;24.88;18.10;;;;;;;18.55;67.85;100071.41;6039389;23;20399;-80
2021/08/21 04:43:01;;;;;;;27.13;19.52;;;;;;;18.52;68.01;100070.81;6039467;23;20031;-80
2021/08/21 04:46:06;;;;;;;26.38;20.35;;;;;;;18.44;69.14;100079.47;6039113;23;20328;-80
2021/08/21 04:48:33;;;;;;;29.48;18.70;;;;;;;18.42;68.25;100074.28;6039244;23;20042;-79
2021/08/21 04:50:59;;;;;;;38.17;20.80;;;;;;;18.40;68.35;100072.72;6038792;23;20029;-80
2021/08/21 05:00:40;;;;;;;98.35;19.27;;;;;;;18.32;68.52;100087.53;6068731;23;20110;-79
2021/08/21 05:03:07;;;;;;;162.63;21.30;;;;;;;18.30;68.87;100089.50;6043787;23;20031;-80
2021/08/21 05:06:05;;;;;;;190.82;21.25;;;;;;;18.24;70.13;100087.34;6044279;23;20053;-80
2021/08/21 05:08:32;;;;;;;218.45;22.17;;;;;;;18.28;69.09;100079.94;6043987;23;20101;-80
2021/08/21 05:10:58;;;;;;;221.07;22.58;;;;;;;18.27;69.43;100087.09;6043613;23;20022;-80
2021/08/21 05:16:53;;;;;;;130.05;18.83;;;;;;;18.29;69.66;100090.47;6068965;23;20105;-80
2021/08/21 05:19:33;;;;;;;117.05;18.23;;;;;;;18.29;70.18;100092.28;6043838;23;20054;-80
2021/08/21 05:22:23;;;;;;;128.57;20.15;;;;;;;18.30;69.93;100089.50;6043666;23;20114;-80
2021/08/21 05:24:51;;;;;;;239.35;25.88;;;;;;;18.32;70.06;100092.84;6043357;23;20058;-80
2021/08/21 05:27:20;;;;;;;130.68;21.73;;;;;;;18.33;70.22;100089.25;6043938;23;20026;-80
2021/08/21 05:29:47;;;;;;;172.02;21.27;;;;;;;18.34;70.31;100090.94;6043517;23;20037;-80
2021/08/21 05:32:15;;;;;;;152.43;20.90;;;;;;;18.36;70.68;100096.97;6043428;23;20101;-80
2021/08/21 05:38:22;;;;;;;159.18;21.65;;;;;;;18.44;70.05;100088.34;6068718;23;20056;-80
2021/08/21 05:41:10;;;;;;;145.05;20.73;;;;;;;18.41;71.22;100090.38;6043471;23;20061;-80
2021/08/21 05:43:45;;;;;;;92.47;19.77;;;;;;;18.45;71.22;100090.00;6043792;23;20412;-80
2021/08/21 05:49:40;;;;;;;37.40;19.40;;;;;;;18.54;70.57;100101.69;6068516;23;20110;-80
2021/08/21 05:52:07;;;;;;;37.08;20.60;;;;;;;18.57;70.71;100096.13;6043699;23;20027;-80
2021/08/21 05:55:17;;;;;;;49.75;20.17;;;;;;;18.57;71.39;100093.44;6043522;23;20109;-79
2021/08/21 05:58:22;;;;;;;25.73;19.85;;;;;;;18.62;71.31;100088.56;6038390;23;20025;-80
2021/08/21 06:00:48;;;;;;;31.15;18.98;;;;;;;18.71;70.71;100091.41;6038484;23;20019;-80
2021/08/21 06:03:17;;;;;;;36.58;20.38;;;;;;;18.76;70.74;100091.84;6038799;23;20027;-80
2021/08/21 06:09:31;;;;;;;27.88;19.85;;;;;;;18.93;70.55;100100.22;6039876;23;20080;-80
2021/08/21 06:15:45;;;;;;;26.05;19.95;;;;;;;19.02;70.34;100099.41;6039839;23;20018;-80
2021/08/21 06:18:54;;;;;;;28.13;20.17;;;;;;;19.01;70.84;100101.25;6038345;23;20037;-80
2021/08/21 06:21:21;;;;;;;28.52;20.60;;;;;;;19.13;70.09;100111.84;6038728;23;20037;-80
2021/08/21 06:24:09;;;;;;;31.02;20.67;;;;;;;19.12;70.85;100113.69;6038741;23;20347;-80
2021/08/21 06:26:36;;;;;;;27.30;20.70;;;;;;;19.20;69.96;100113.00;6038388;23;20106;-80
2021/08/21 06:29:03;;;;;;;28.33;19.92;;;;;;;19.22;69.91;100113.69;6039537;23;20035;-80
2021/08/21 06:31:52;;;;;;;26.98;21.15;;;;;;;19.20;70.61;100109.47;6038207;23;20106;-80
2021/08/21 06:34:18;;;;;;;27.83;21.55;;;;;;;19.26;70.28;100117.78;6038279;23;20023;-80
2021/08/21 06:36:45;;;;;;;34.15;23.27;;;;;;;19.29;70.01;100106.03;6038538;23;20106;-80
2021/08/21 06:39:21;;;;;;;28.95;21.60;;;;;;;19.27;70.73;100113.31;6040110;23;20023;-80
2021/08/21 06:41:48;;;;;;;30.10;21.85;;;;;;;19.33;70.17;100115.41;6038611;23;20146;-80
2021/08/21 06:44:14;;;;;;;31.55;22.52;;;;;;;19.35;70.14;100109.94;6038432;23;20099;-80
2021/08/21 06:50:06;;;;;;;30.63;21.95;;;;;;;19.43;70.39;100111.94;6041359;23;20023;-80
2021/08/21 06:52:33;;;;;;;30.60;21.00;;;;;;;19.46;70.34;100107.19;6039941;23;20034;-80
2021/08/21 06:55:05;;;;;;;30.00;23.55;;;;;;;19.50;71.00;100107.72;6039903;23;20035;-81
2021/08/21 06:57:42;;;;;;;28.07;21.07;;;;;;;19.55;70.96;100110.84;6039902;23;20029;-80
2021/08/21 07:00:09;;;;;;;28.95;22.13;;;;;;;19.63;70.52;100113.66;6039944;23;20031;-80
2021/08/21 07:02:36;;;;;;;30.20;22.63;;;;;;;19.69;70.37;100106.09;6040229;23;20038;-80
2021/08/21 07:08:43;;;;;;;24.63;20.02;;;;;;;19.81;70.38;100104.13;6041391;23;20071;-80
2021/08/21 07:11:55;;;;;;;26.65;21.15;;;;;;;19.82;70.66;100104.00;6040029;23;20023;-80
2021/08/21 07:14:22;;;;;;;27.90;21.40;;;;;;;19.91;69.95;100103.16;6040128;23;20102;-80
2021/08/21 07:16:49;;;;;;;26.80;21.05;;;;;;;19.95;70.05;100108.22;6040240;23;20055;-80
2021/08/21 07:19:16;;;;;;;30.60;22.83;;;;;;;19.99;69.96;100110.50;6039709;23;20102;-80
2021/08/21 07:21:43;;;;;;;28.42;21.70;;;;;;;20.03;69.80;100109.22;6040142;23;20106;-80
2021/08/21 07:27:31;;;;;;;28.60;20.85;;;;;;;20.20;70.28;100114.88;6041053;23;20019;-80
2021/08/21 07:30:04;;;;;;;31.42;25.08;;;;;;;20.27;69.85;100120.47;6039713;23;20118;-80
2021/08/21 07:33:01;;;;;;;28.20;22.77;;;;;;;20.30;70.21;100114.88;6041429;23;20031;-80
2021/08/21 07:35:28;;;;;;;26.90;22.08;;;;;;;20.42;69.58;100123.56;6040020;23;20098;-80
2021/08/21 07:37:55;;;;;;;29.05;22.48;;;;;;;20.47;69.75;100129.31;6039549;23;20023;-80
2021/08/21 07:40:49;;;;;;;31.38;22.35;;;;;;;20.49;70.02;100129.19;6039807;23;20498;-80
2021/08/21 07:43:20;;;;;;;29.42;22.75;;;;;;;20.58;69.90;100133.66;6039506;23;20114;-80
2021/08/21 07:46:01;;;;;;;28.52;23.08;;;;;;;20.63;70.05;100138.59;6041306;23;20037;-83
2021/08/21 07:48:29;;;;;;;30.27;23.80;;;;;;;20.75;69.84;100136.59;6040854;23;20355;-82
2021/08/21 07:50:56;;;;;;;28.58;22.73;;;;;;;20.83;69.47;100152.75;6039890;23;20339;-83
2021/08/21 07:53:27;;;;;;;28.70;22.98;;;;;;;20.88;69.54;100145.16;6039674;23;20102;-83
2021/08/21 07:55:54;;;;;;;27.80;22.10;;;;;;;20.96;69.72;100156.00;6038952;23;20108;-82
2021/08/21 07:58:22;;;;;;;29.75;23.77;;;;;;;21.04;69.39;100155.25;6039189;23;20573;-82
2021/08/21 08:00:52;;;;;;;29.25;22.98;;;;;;;21.13;69.50;100150.00;6039375;23;20023;-82
2021/08/21 08:03:28;;;;;;;;;;;;;;;21.19;69.39;100155.63;6041442;23;20080;-78
2021/08/21 08:05:55;;;;;;;26.55;21.15;;;;;;;21.34;68.79;100147.94;6039267;23;19993;-78
2021/08/21 08:08:25;;;;;;;27.58;22.08;;;;;;;21.40;68.75;100153.69;6039988;23;20551;-78
2021/08/21 08:10:52;;;;;;;25.85;21.98;;;;;;;21.47;68.43;100154.78;6039178;23;20030;-78
2021/08/21 08:13:20;;;;;;;24.33;19.77;;;;;;;21.54;68.52;100152.34;6039592;23;20090;-78
2021/08/21 08:15:48;;;;;;;30.02;21.85;;;;;;;21.60;68.38;100154.44;6041201;23;20118;-78
2021/08/21 08:18:19;;;;;;;27.70;21.35;;;;;;;21.64;68.13;100155.81;6039650;23;20075;-78
2021/08/21 08:20:46;;;;;;;25.88;20.95;;;;;;;21.73;68.30;100151.44;6039633;23;20510;-78
2021/08/21 08:23:13;;;;;;;23.13;18.85;;;;;;;21.80;68.44;100157.88;6039448;23;20027;-78
2021/08/21 08:25:41;;;;;;;25.52;20.42;;;;;;;21.89;68.21;100152.56;6039054;23;20038;-78
2021/08/21 08:28:09;;;;;;;24.92;21.20;;;;;;;21.96;68.09;100154.53;6039138;23;20024;-78
2021/08/21 08:30:36;;;;;;;25.67;20.58;;;;;;;22.06;67.74;100153.59;6039175;23;20103;-78
2021/08/21 08:33:12;;;;;;;24.63;20.15;;;;;;;22.12;67.19;100161.00;6040655;23;20079;-78
2021/08/21 08:35:39;;;;;;;24.52;19.45;;;;;;;22.22;67.26;100164.47;6040226;23;20030;-78
2021/08/21 08:38:12;;;;;;;24.95;21.05;;;;;;;22.26;67.12;100159.63;6039794;23;20023;-79
2021/08/21 08:40:39;;;;;;;22.00;18.90;;;;;;;22.36;67.37;100154.19;6039124;23;20102;-79
2021/08/21 08:43:28;;;;;;;21.10;17.65;;;;;;;22.39;67.37;100153.91;6039006;23;20027;-79
2021/08/21 08:45:55;;;;;;;20.00;17.73;;;;;;;22.54;67.45;100158.69;6039132;23;20033;-79
2021/08/21 08:48:25;;;;;;;21.73;17.83;;;;;;;22.61;66.58;100159.78;6040688;23;20396;-79
2021/08/21 08:50:54;;;;;;;23.58;18.40;;;;;;;22.71;66.49;100159.66;6040558;23;20054;-79
2021/08/21 08:53:23;;;;;;;19.42;16.83;;;;;;;22.79;66.15;100159.72;6038907;23;20034;-79
2021/08/21 08:55:50;;;;;;;27.80;20.02;;;;;;;22.89;66.20;100165.00;6038570;23;20023;-79
2021/08/21 08:58:17;;;;;;;22.50;18.65;;;;;;;22.96;65.60;100165.19;6038798;23;20034;-79
2021/08/21 09:00:46;;;;;;;20.02;17.38;;;;;;;22.98;65.42;100158.66;6039187;23;20030;-79
2021/08/21 09:03:21;;;;;;;24.15;19.00;;;;;;;22.99;64.35;100167.56;6038735;23;20030;-79
2021/08/21 09:05:57;;;;;;;21.15;18.38;;;;;;;22.99;64.78;100165.72;6039218;23;20099;-79
2021/08/21 09:08:29;;;;;;;22.40;18.67;;;;;;;23.04;65.75;100168.78;6039230;23;20102;-79
2021/08/21 09:10:58;;;;;;;23.10;18.67;;;;;;;23.10;65.39;100161.91;6039099;23;20062;-79
2021/08/21 09:13:30;;;;;;;18.67;16.05;;;;;;;23.15;64.36;100167.66;6038698;23;20030;-79
2021/08/21 09:16:01;;;;;;;18.42;16.50;;;;;;;23.22;64.20;100162.50;6038611;23;20023;-79
2021/08/21 09:19:01;;;;;;;19.85;16.30;;;;;;;23.25;64.39;100161.34;6038778;23;20066;-79
2021/08/21 09:21:28;;;;;;;17.83;15.60;;;;;;;23.36;64.70;100160.22;6038951;23;20078;-79
2021/08/21 09:24:22;;;;;;;18.77;15.98;;;;;;;23.37;64.12;100157.38;6038718;23;20029;-79
2021/08/21 09:26:48;;;;;;;16.60;14.50;;;;;;;23.48;64.36;100155.41;6038978;23;20023;-79
2021/08/21 09:29:34;;;;;;;17.08;15.25;;;;;;;23.49;63.76;100157.06;6038572;23;20037;-79
2021/08/21 09:32:06;;;;;;;15.38;13.77;;;;;;;23.59;63.88;100154.25;6038912;23;20120;-79
2021/08/21 09:34:38;;;;;;;16.55;14.75;;;;;;;23.68;64.43;100153.28;6038467;23;20059;-79
2021/08/21 09:37:09;;;;;;;13.47;11.80;;;;;;;23.79;64.09;100152.97;6038889;23;20102;-79
2021/08/21 09:39:43;;;;;;;11.50;10.23;;;;;;;23.90;63.40;100157.19;6038987;23;20399;-79
2021/08/21 09:42:10;;;;;;;10.85;9.70;;;;;;;24.03;62.50;100150.50;6038820;23;20019;-79
2021/08/21 09:44:47;;;;;;;13.40;11.48;;;;;;;24.08;62.58;100154.34;6038753;23;20107;-79
2021/08/21 09:47:29;;;;;;;13.70;12.30;;;;;;;24.22;62.84;100153.91;6039023;23;20333;-79
2021/08/21 09:50:14;;;;;;;10.73;9.63;;;;;;;24.27;60.93;100152.38;6038865;23;20037;-79
2021/08/21 09:52:45;;;;;;;10.40;8.27;;;;;;;24.37;61.28;100154.88;6038809;23;20059;-79
2021/08/21 09:55:19;;;;;;;9.40;8.00;;;;;;;24.43;60.63;100156.06;6038779;23;20023;-79
2021/08/21 09:58:20;;;;;;;11.10;7.30;;;;;;;24.43;60.33;100156.06;6030728;23;20102;-80
2021/08/21 10:00:48;;;;;;;8.57;7.78;;;;;;;24.53;60.01;100154.06;6038384;23;20098;-80
2021/08/21 10:03:16;;;;;;;9.95;8.95;;;;;;;24.58;60.88;100149.00;6038352;23;20071;-80
2021/08/21 10:05:48;;;;;;;8.90;8.00;;;;;;;24.65;60.95;100148.31;6038393;23;20106;-80
2021/08/21 10:08:15;;;;;;;9.43;8.23;;;;;;;24.73;60.80;100145.59;6038540;23;20058;-80
2021/08/21 10:10:49;;;;;;;9.40;8.43;;;;;;;24.84;61.05;100147.97;6038479;23;20314;-80
2021/08/21 10:13:35;;;;;;;9.55;8.60;;;;;;;24.98;60.69;100153.66;6038166;23;20412;-80
2021/08/21 10:16:12;;;;;;;9.48;8.07;;;;;;;25.14;59.29;100151.91;6039854;23;20032;-80
2021/08/21 10:18:47;;;;;;;9.48;7.85;;;;;;;25.29;60.67;100154.72;6039113;23;20034;-80
2021/08/21 10:21:16;;;;;;;8.85;7.95;;;;;;;25.48;60.23;100154.31;6040384;23;20035;-80
2021/08/21 10:23:56;;;;;;;9.27;8.23;;;;;;;25.64;58.77;100147.16;6040548;23;20094;-80
2021/08/21 10:26:33;;;;;;;10.13;9.13;;;;;;;25.83;58.56;100153.97;6041069;23;20106;-80
2021/08/21 10:29:01;;;;;;;9.88;8.02;;;;;;;26.00;58.05;100141.22;6040851;23;20436;-80
2021/08/21 10:31:48;;;;;;;9.75;7.55;;;;;;;26.12;58.02;100143.47;6040890;23;20396;-80
2021/08/21 10:34:15;;;;;;;9.02;7.50;;;;;;;26.31;57.12;100142.19;6040071;23;20106;-80
2021/08/21 10:37:04;;;;;;;10.88;8.43;;;;;;;26.42;56.32;100135.50;6041109;23;20106;-80
2021/08/21 10:39:31;;;;;;;8.02;7.25;;;;;;;26.61;57.02;100131.44;6040467;23;20317;-80
2021/08/21 10:41:57;;;;;;;7.70;6.85;;;;;;;26.75;56.49;100132.50;6040164;23;20102;-80
2021/08/21 10:44:50;;;;;;;6.93;6.22;;;;;;;26.89;56.20;100133.53;6040406;23;20366;-80
2021/08/21 10:47:33;;;;;;;7.07;6.38;;;;;;;27.11;55.50;100141.75;6040211;23;20098;-80
2021/08/21 10:50:12;;;;;;;8.13;5.45;;;;;;;27.31;55.04;100135.75;6040522;23;20074;-80
2021/08/21 10:52:53;;;;;;;8.75;5.53;;;;;;;27.51;54.72;100129.75;6039966;23;20098;-80
2021/08/21 10:55:23;;;;;;;6.30;5.55;;;;;;;27.70;52.48;100129.16;6039778;23;20102;-79
2021/08/21 10:57:56;;;;;;;4.00;3.65;;;;;;;27.86;52.08;100131.81;6039947;23;20023;-80
2021/08/21 11:00:46;;;;;;;4.22;3.33;;;;;;;27.95;52.49;100125.22;6040314;23;20102;-80
2021/08/21 11:03:22;;;;;;;3.38;3.00;;;;;;;28.09;52.12;100120.78;6040342;23;20090;-80
2021/08/21 11:06:05;;;;;;;4.90;3.10;;;;;;;28.22;51.62;100123.59;6039935;23;20107;-80
2021/08/21 11:08:54;;;;;;;2.60;2.40;;;;;;;28.41;52.07;100132.09;6035199;23;20471;-80
2021/08/21 11:11:49;;;;;;;2.35;2.15;;;;;;;28.67;49.00;100127.09;6040329;23;20102;-80
2021/08/21 11:14:27;;;;;;;3.00;2.22;;;;;;;28.97;49.75;100127.72;6040173;23;20440;-80
2021/08/21 11:17:02;;;;;;;2.92;2.63;;;;;;;29.35;49.52;100133.72;6039775;23;20070;-80
2021/08/21 11:19:45;;;;;;;3.13;2.83;;;;;;;29.76;49.45;100126.56;6039848;23;20023;-80
2021/08/21 11:22:20;;;;;;;3.10;2.85;;;;;;;30.17;47.29;100130.19;6040234;23;20030;-80
2021/08/21 11:25:06;;;;;;;3.50;2.47;;;;;;;30.49;47.47;100127.66;6039482;23;20106;-80
2021/08/21 11:27:35;;;;;;;2.85;2.42;;;;;;;30.73;46.12;100122.66;6040400;23;20471;-80
2021/08/21 11:30:11;;;;;;;3.40;2.55;;;;;;;30.85;45.76;100116.53;6039827;23;20098;-80
2021/08/21 11:33:02;;;;;;;3.20;2.85;;;;;;;30.91;44.42;100116.53;6041675;23;20024;-80
2021/08/21 11:35:45;;;;;;;3.42;3.13;;;;;;;30.95;45.07;100117.75;6039528;23;20024;-80
2021/08/21 11:38:14;;;;;;;3.72;3.42;;;;;;;31.03;44.81;100116.72;6040352;23;20027;-80
2021/08/21 11:40:48;;;;;;;5.45;3.63;;;;;;;31.00;44.57;100111.69;6040070;23;20110;-80
2021/08/21 11:43:16;;;;;;;3.30;2.90;;;;;;;31.01;43.67;100115.22;6041518;23;20115;-80
2021/08/21 11:45:43;;;;;;;3.55;3.17;;;;;;;30.97;42.43;100117.56;6041259;23;20027;-80
2021/08/21 11:48:11;;;;;;;3.70;3.25;;;;;;;30.87;42.21;100117.19;6039630;23;20023;-80
2021/08/21 11:50:41;;;;;;;3.55;3.20;;;;;;;30.69;41.70;100114.03;6040144;23;20108;-80
2021/08/21 11:53:13;;;;;;;3.85;3.10;;;;;;;30.58;43.05;100109.28;6039724;23;20110;-80
2021/08/21 11:55:48;;;;;;;4.80;3.72;;;;;;;30.42;42.79;100111.38;6040211;23;20111;-80
2021/08/21 11:58:15;;;;;;;5.18;3.28;;;;;;;30.36;44.16;100106.81;6039486;23;20494;-80
2021/08/21 12:00:52;;;;;;;3.95;3.30;;;;;;;30.27;44.18;100108.06;6040375;23;20435;-80
2021/08/21 12:03:33;;;;;;;3.00;2.63;;;;;;;30.21;42.50;100112.44;6040229;23;20030;-80
2021/08/21 12:06:01;;;;;;;4.00;2.88;;;;;;;30.22;43.67;100111.41;6039349;23;20023;-80
2021/08/21 12:08:29;;;;;;;3.83;3.33;;;;;;;30.23;43.80;100104.09;6039347;23;20102;-80
2021/08/21 12:10:57;;;;;;;4.22;3.80;;;;;;;30.23;43.85;100096.75;6039687;23;20030;-80
2021/08/21 12:13:23;;;;;;;5.20;4.70;;;;;;;30.25;43.41;100099.28;6039791;23;20369;-80
2021/08/21 12:16:35;;;;;;;3.95;3.35;;;;;;;30.20;44.55;100105.31;6039638;23;20315;-80